sensor_id;sensor_type;location;lat;lon;timestamp;pressure;altitude;pressure_sealevel;temperature;humidity
64388;BME280;50709;52.648;4.764;2023-02-20T00:00:55;102401.06;;;12.70;66.75
64388;BME280;50709;52.648;4.764;2023-02-20T00:03:20;102402.41;;;12.96;65.19
64388;BME280;50709;52.648;4.764;2023-02-20T00:05:46;102391.13;;;13.01;64.47
64388;BME280;50709;52.648;4.764;2023-02-20T00:08:11;102403.25;;;12.94;66.45
64388;BME280;50709;52.648;4.764;2023-02-20T00:10:36;102396.00;;;12.81;66.71
64388;BME280;50709;52.648;4.764;2023-02-20T00:13:02;102387.94;;;12.68;66.95
64388;BME280;50709;52.648;4.764;2023-02-20T00:15:27;102388.84;;;12.69;65.88
64388;BME280;50709;52.648;4.764;2023-02-20T00:17:53;102379.25;;;12.72;66.48
64388;BME280;50709;52.648;4.764;2023-02-20T00:20:23;102384.00;;;12.93;66.28
64388;BME280;50709;52.648;4.764;2023-02-20T00:22:50;102379.09;;;12.63;67.00
64388;BME280;50709;52.648;4.764;2023-02-20T00:25:16;102381.47;;;12.49;64.84
64388;BME280;50709;52.648;4.764;2023-02-20T00:27:43;102366.97;;;12.68;65.84
64388;BME280;50709;52.648;4.764;2023-02-20T00:30:19;102370.75;;;12.37;67.09
64388;BME280;50709;52.648;4.764;2023-02-20T00:32:46;102348.53;;;12.64;64.86
64388;BME280;50709;52.648;4.764;2023-02-20T00:35:12;102333.16;;;12.35;66.91
64388;BME280;50709;52.648;4.764;2023-02-20T00:37:38;102332.44;;;12.94;65.93
64388;BME280;50709;52.648;4.764;2023-02-20T00:40:05;102325.19;;;12.28;67.29
64388;BME280;50709;52.648;4.764;2023-02-20T00:42:31;102324.00;;;12.60;66.99
64388;BME280;50709;52.648;4.764;2023-02-20T00:44:56;102334.09;;;12.38;67.33
64388;BME280;50709;52.648;4.764;2023-02-20T00:47:22;102325.47;;;12.44;67.77
64388;BME280;50709;52.648;4.764;2023-02-20T00:49:47;102327.91;;;12.33;67.98
64388;BME280;50709;52.648;4.764;2023-02-20T00:52:13;102327.47;;;12.59;67.11
64388;BME280;50709;52.648;4.764;2023-02-20T00:54:38;102316.53;;;12.33;67.64
64388;BME280;50709;52.648;4.764;2023-02-20T00:57:04;102328.91;;;12.90;66.72
64388;BME280;50709;52.648;4.764;2023-02-20T00:59:29;102327.25;;;12.97;66.69
64388;BME280;50709;52.648;4.764;2023-02-20T01:01:54;102317.19;;;12.70;66.83
64388;BME280;50709;52.648;4.764;2023-02-20T01:04:20;102303.25;;;12.74;66.71
64388;BME280;50709;52.648;4.764;2023-02-20T01:06:45;102306.84;;;12.77;67.41
64388;BME280;50709;52.648;4.764;2023-02-20T01:09:11;102300.91;;;12.37;68.43
64388;BME280;50709;52.648;4.764;2023-02-20T01:11:37;102313.28;;;12.44;66.91
64388;BME280;50709;52.648;4.764;2023-02-20T01:14:03;102300.72;;;12.28;68.49
64388;BME280;50709;52.648;4.764;2023-02-20T01:16:28;102304.78;;;12.58;67.21
64388;BME280;50709;52.648;4.764;2023-02-20T01:18:54;102300.78;;;12.82;66.44
64388;BME280;50709;52.648;4.764;2023-02-20T01:21:20;102306.13;;;12.88;67.72
64388;BME280;50709;52.648;4.764;2023-02-20T01:23:45;102309.72;;;12.93;67.64
64388;BME280;50709;52.648;4.764;2023-02-20T01:26:11;102282.03;;;12.57;67.19
64388;BME280;50709;52.648;4.764;2023-02-20T01:28:36;102289.78;;;12.51;67.42
64388;BME280;50709;52.648;4.764;2023-02-20T01:31:02;102266.59;;;12.23;67.94
64388;BME280;50709;52.648;4.764;2023-02-20T01:33:27;102281.16;;;12.09;68.79
64388;BME280;50709;52.648;4.764;2023-02-20T01:35:52;102271.56;;;12.58;67.88
64388;BME280;50709;52.648;4.764;2023-02-20T01:38:18;102284.47;;;12.46;67.19
64388;BME280;50709;52.648;4.764;2023-02-20T01:40:47;102285.47;;;12.54;67.47
64388;BME280;50709;52.648;4.764;2023-02-20T01:43:14;102264.53;;;12.56;67.55
64388;BME280;50709;52.648;4.764;2023-02-20T01:45:40;102279.56;;;12.66;69.00
64388;BME280;50709;52.648;4.764;2023-02-20T01:48:11;102270.88;;;12.69;67.20
64388;BME280;50709;52.648;4.764;2023-02-20T01:50:43;102271.00;;;12.26;67.12
64388;BME280;50709;52.648;4.764;2023-02-20T01:53:18;102251.88;;;12.30;67.42
64388;BME280;50709;52.648;4.764;2023-02-20T01:55:53;102249.50;;;12.45;68.38
64388;BME280;50709;52.648;4.764;2023-02-20T01:58:29;102244.88;;;12.31;67.12
64388;BME280;50709;52.648;4.764;2023-02-20T02:00:56;102246.16;;;12.53;67.15
64388;BME280;50709;52.648;4.764;2023-02-20T02:03:29;102239.03;;;12.45;66.24
64388;BME280;50709;52.648;4.764;2023-02-20T02:06:04;102260.50;;;12.78;67.05
64388;BME280;50709;52.648;4.764;2023-02-20T02:08:32;102253.91;;;12.47;66.34
64388;BME280;50709;52.648;4.764;2023-02-20T02:11:16;102262.22;;;12.73;67.68
64388;BME280;50709;52.648;4.764;2023-02-20T02:13:43;102217.34;;;12.54;68.29
64388;BME280;50709;52.648;4.764;2023-02-20T02:22:07;102219.66;;;12.36;67.86
64388;BME280;50709;52.648;4.764;2023-02-20T02:25:04;102232.22;;;12.55;68.32
64388;BME280;50709;52.648;4.764;2023-02-20T02:38:35;102227.88;;;12.57;67.67
64388;BME280;50709;52.648;4.764;2023-02-20T02:43:40;102201.94;;;12.74;67.95
64388;BME280;50709;52.648;4.764;2023-02-20T02:51:51;102199.13;;;12.08;68.12
64388;BME280;50709;52.648;4.764;2023-02-20T02:54:21;102201.34;;;12.37;68.33
64388;BME280;50709;52.648;4.764;2023-02-20T02:57:22;102210.66;;;12.20;69.24
64388;BME280;50709;52.648;4.764;2023-02-20T02:59:53;102204.91;;;12.42;68.42
64388;BME280;50709;52.648;4.764;2023-02-20T03:02:21;102194.41;;;12.41;68.65
64388;BME280;50709;52.648;4.764;2023-02-20T03:04:50;102189.03;;;12.32;68.26
64388;BME280;50709;52.648;4.764;2023-02-20T03:07:18;102192.84;;;12.52;67.74
64388;BME280;50709;52.648;4.764;2023-02-20T03:12:12;102180.69;;;12.57;68.45
64388;BME280;50709;52.648;4.764;2023-02-20T03:14:58;102182.53;;;12.63;67.14
64388;BME280;50709;52.648;4.764;2023-02-20T03:17:51;102179.72;;;12.51;69.28
64388;BME280;50709;52.648;4.764;2023-02-20T03:20:21;102174.47;;;12.51;68.00
64388;BME280;50709;52.648;4.764;2023-02-20T03:22:52;102172.97;;;12.65;68.35
64388;BME280;50709;52.648;4.764;2023-02-20T03:25:30;102172.84;;;12.57;68.21
64388;BME280;50709;52.648;4.764;2023-02-20T03:28:04;102154.16;;;12.36;69.15
64388;BME280;50709;52.648;4.764;2023-02-20T03:30:36;102158.28;;;12.78;69.12
64388;BME280;50709;52.648;4.764;2023-02-20T03:33:09;102171.50;;;12.27;67.82
64388;BME280;50709;52.648;4.764;2023-02-20T03:35:55;102167.63;;;12.59;67.76
64388;BME280;50709;52.648;4.764;2023-02-20T03:38:43;102166.03;;;12.69;68.20
64388;BME280;50709;52.648;4.764;2023-02-20T03:41:30;102167.09;;;12.26;68.92
64388;BME280;50709;52.648;4.764;2023-02-20T03:44:19;102147.31;;;12.45;68.98
64388;BME280;50709;52.648;4.764;2023-02-20T03:46:47;102136.28;;;12.08;68.42
64388;BME280;50709;52.648;4.764;2023-02-20T03:49:19;102126.00;;;12.21;67.59
64388;BME280;50709;52.648;4.764;2023-02-20T03:52:04;102160.31;;;12.36;67.59
64388;BME280;50709;52.648;4.764;2023-02-20T03:54:30;102153.00;;;12.18;68.90
64388;BME280;50709;52.648;4.764;2023-02-20T03:57:09;102162.84;;;12.33;67.71
64388;BME280;50709;52.648;4.764;2023-02-20T03:59:49;102148.97;;;12.39;69.30
64388;BME280;50709;52.648;4.764;2023-02-20T04:02:21;102147.13;;;12.33;68.16
64388;BME280;50709;52.648;4.764;2023-02-20T04:04:52;102138.59;;;12.45;68.35
64388;BME280;50709;52.648;4.764;2023-02-20T04:07:27;102154.47;;;12.02;68.00
64388;BME280;50709;52.648;4.764;2023-02-20T04:09:57;102104.06;;;12.16;68.25
64388;BME280;50709;52.648;4.764;2023-02-20T04:12:27;102149.44;;;12.71;67.45
64388;BME280;50709;52.648;4.764;2023-02-20T04:14:55;102145.84;;;12.63;67.59
64388;BME280;50709;52.648;4.764;2023-02-20T04:17:31;102166.31;;;12.31;67.57
64388;BME280;50709;52.648;4.764;2023-02-20T04:19:56;102167.53;;;12.53;67.93
64388;BME280;50709;52.648;4.764;2023-02-20T04:22:27;102155.13;;;12.42;68.70
64388;BME280;50709;52.648;4.764;2023-02-20T04:25:08;102149.53;;;12.19;69.12
64388;BME280;50709;52.648;4.764;2023-02-20T04:27:36;102159.38;;;12.33;67.90
64388;BME280;50709;52.648;4.764;2023-02-20T04:30:02;102146.31;;;12.37;67.66
64388;BME280;50709;52.648;4.764;2023-02-20T04:32:28;102134.63;;;12.72;68.64
64388;BME280;50709;52.648;4.764;2023-02-20T04:34:54;102150.78;;;12.43;68.13
64388;BME280;50709;52.648;4.764;2023-02-20T04:37:19;102166.50;;;12.43;67.72
64388;BME280;50709;52.648;4.764;2023-02-20T04:39:45;102156.88;;;12.40;67.25
64388;BME280;50709;52.648;4.764;2023-02-20T04:42:11;102155.13;;;12.42;68.02
64388;BME280;50709;52.648;4.764;2023-02-20T04:44:36;102143.47;;;12.22;67.82
64388;BME280;50709;52.648;4.764;2023-02-20T04:47:06;102158.72;;;12.48;67.86
64388;BME280;50709;52.648;4.764;2023-02-20T04:49:33;102167.44;;;12.48;67.19
64388;BME280;50709;52.648;4.764;2023-02-20T04:51:59;102165.63;;;12.44;66.65
64388;BME280;50709;52.648;4.764;2023-02-20T04:54:24;102171.78;;;12.44;68.21
64388;BME280;50709;52.648;4.764;2023-02-20T04:56:50;102128.03;;;11.88;66.78
64388;BME280;50709;52.648;4.764;2023-02-20T04:59:16;102156.25;;;12.03;68.04
64388;BME280;50709;52.648;4.764;2023-02-20T05:01:41;102159.66;;;11.98;68.23
64388;BME280;50709;52.648;4.764;2023-02-20T05:04:15;102157.09;;;12.02;68.47
64388;BME280;50709;52.648;4.764;2023-02-20T05:06:46;102145.81;;;12.06;68.30
64388;BME280;50709;52.648;4.764;2023-02-20T05:09:12;102139.19;;;12.25;68.14
64388;BME280;50709;52.648;4.764;2023-02-20T05:11:38;102150.22;;;12.07;68.24
64388;BME280;50709;52.648;4.764;2023-02-20T05:14:04;102143.44;;;11.71;68.30
64388;BME280;50709;52.648;4.764;2023-02-20T05:16:30;102148.81;;;11.79;68.87
64388;BME280;50709;52.648;4.764;2023-02-20T05:18:55;102142.56;;;12.20;68.66
64388;BME280;50709;52.648;4.764;2023-02-20T05:21:20;102149.63;;;11.75;68.74
64388;BME280;50709;52.648;4.764;2023-02-20T05:24:05;102136.00;;;11.47;69.13
64388;BME280;50709;52.648;4.764;2023-02-20T05:26:30;102147.16;;;11.84;69.89
64388;BME280;50709;52.648;4.764;2023-02-20T05:28:56;102133.13;;;11.81;68.40
64388;BME280;50709;52.648;4.764;2023-02-20T05:31:21;102116.34;;;11.68;67.93
64388;BME280;50709;52.648;4.764;2023-02-20T05:33:47;102130.25;;;12.16;68.58
64388;BME280;50709;52.648;4.764;2023-02-20T05:36:12;102147.06;;;12.27;68.43
64388;BME280;50709;52.648;4.764;2023-02-20T05:38:38;102141.53;;;12.10;67.58
64388;BME280;50709;52.648;4.764;2023-02-20T05:41:05;102141.22;;;12.47;68.71
64388;BME280;50709;52.648;4.764;2023-02-20T05:43:31;102120.69;;;11.67;68.26
64388;BME280;50709;52.648;4.764;2023-02-20T05:45:56;102131.84;;;12.04;69.81
64388;BME280;50709;52.648;4.764;2023-02-20T05:48:21;102134.19;;;11.90;67.85
64388;BME280;50709;52.648;4.764;2023-02-20T05:50:47;102121.53;;;12.15;68.47
64388;BME280;50709;52.648;4.764;2023-02-20T05:53:15;102123.25;;;11.64;69.13
64388;BME280;50709;52.648;4.764;2023-02-20T05:55:40;102131.50;;;11.87;69.24
64388;BME280;50709;52.648;4.764;2023-02-20T05:58:06;102139.16;;;11.76;69.31
64388;BME280;50709;52.648;4.764;2023-02-20T06:00:31;102129.25;;;12.06;69.56
64388;BME280;50709;52.648;4.764;2023-02-20T06:02:56;102134.22;;;11.92;68.99
64388;BME280;50709;52.648;4.764;2023-02-20T06:05:22;102138.78;;;12.04;69.27
64388;BME280;50709;52.648;4.764;2023-02-20T06:07:48;102138.22;;;12.20;69.34
64388;BME280;50709;52.648;4.764;2023-02-20T06:10:16;102130.16;;;12.08;68.49
64388;BME280;50709;52.648;4.764;2023-02-20T06:12:42;102126.91;;;12.23;69.03
64388;BME280;50709;52.648;4.764;2023-02-20T06:15:08;102129.41;;;12.17;68.33
64388;BME280;50709;52.648;4.764;2023-02-20T06:17:33;102122.63;;;11.77;69.33
64388;BME280;50709;52.648;4.764;2023-02-20T06:19:59;102103.69;;;11.43;68.80
64388;BME280;50709;52.648;4.764;2023-02-20T06:22:24;102125.13;;;12.22;69.10
64388;BME280;50709;52.648;4.764;2023-02-20T06:24:50;102122.66;;;12.30;68.23
64388;BME280;50709;52.648;4.764;2023-02-20T06:27:16;102070.91;;;12.79;66.59
64388;BME280;50709;52.648;4.764;2023-02-20T06:29:42;102104.38;;;12.97;67.78
64388;BME280;50709;52.648;4.764;2023-02-20T06:32:08;102105.16;;;13.70;65.35
64388;BME280;50709;52.648;4.764;2023-02-20T06:34:34;102109.22;;;14.40;61.62
64388;BME280;50709;52.648;4.764;2023-02-20T06:37:00;102112.44;;;14.00;63.22
64388;BME280;50709;52.648;4.764;2023-02-20T06:39:29;102091.06;;;14.82;62.59
64388;BME280;50709;52.648;4.764;2023-02-20T06:41:55;102120.44;;;14.16;63.25
64388;BME280;50709;52.648;4.764;2023-02-20T06:44:21;102116.31;;;14.55;61.54
64388;BME280;50709;52.648;4.764;2023-02-20T06:46:47;102110.38;;;14.88;63.83
64388;BME280;50709;52.648;4.764;2023-02-20T06:49:12;102115.69;;;14.99;61.94
64388;BME280;50709;52.648;4.764;2023-02-20T06:51:38;102110.44;;;15.01;62.74
64388;BME280;50709;52.648;4.764;2023-02-20T06:54:05;102106.69;;;14.52;61.88
64388;BME280;50709;52.648;4.764;2023-02-20T06:56:33;102116.66;;;15.27;62.47
64388;BME280;50709;52.648;4.764;2023-02-20T06:59:00;102112.34;;;15.37;62.29
64388;BME280;50709;52.648;4.764;2023-02-20T07:01:28;102103.00;;;14.28;63.58
64388;BME280;50709;52.648;4.764;2023-02-20T07:03:55;102111.81;;;14.35;61.04
64388;BME280;50709;52.648;4.764;2023-02-20T07:06:22;102115.53;;;13.54;62.60
64388;BME280;50709;52.648;4.764;2023-02-20T07:08:48;102099.03;;;15.00;63.95
64388;BME280;50709;52.648;4.764;2023-02-20T07:11:16;102127.72;;;14.52;62.84
64388;BME280;50709;52.648;4.764;2023-02-20T07:13:42;102119.19;;;14.95;63.19
64388;BME280;50709;52.648;4.764;2023-02-20T07:16:07;102087.56;;;14.78;62.74
64388;BME280;50709;52.648;4.764;2023-02-20T07:18:32;102123.34;;;14.57;63.97
64388;BME280;50709;52.648;4.764;2023-02-20T07:20:58;102140.28;;;13.78;62.54
64388;BME280;50709;52.648;4.764;2023-02-20T07:23:23;102129.59;;;14.67;63.38
64388;BME280;50709;52.648;4.764;2023-02-20T07:25:49;102120.03;;;14.89;61.44
64388;BME280;50709;52.648;4.764;2023-02-20T07:28:16;102141.22;;;15.22;62.68
64388;BME280;50709;52.648;4.764;2023-02-20T07:30:42;102132.34;;;14.92;63.08
64388;BME280;50709;52.648;4.764;2023-02-20T07:33:08;102163.38;;;14.18;61.90
64388;BME280;50709;52.648;4.764;2023-02-20T07:35:33;102122.94;;;14.02;62.97
64388;BME280;50709;52.648;4.764;2023-02-20T07:37:59;102149.59;;;13.50;64.36
64388;BME280;50709;52.648;4.764;2023-02-20T07:40:24;102140.97;;;14.65;63.31
64388;BME280;50709;52.648;4.764;2023-02-20T07:42:49;102137.34;;;14.53;62.30
64388;BME280;50709;52.648;4.764;2023-02-20T07:45:15;102135.41;;;14.26;63.44
64388;BME280;50709;52.648;4.764;2023-02-20T07:47:40;102138.34;;;14.65;62.17
64388;BME280;50709;52.648;4.764;2023-02-20T07:50:06;102154.44;;;13.97;62.55
64388;BME280;50709;52.648;4.764;2023-02-20T07:52:31;102162.91;;;14.71;62.70
64388;BME280;50709;52.648;4.764;2023-02-20T07:54:56;102136.50;;;13.51;63.54
64388;BME280;50709;52.648;4.764;2023-02-20T07:57:22;102154.94;;;14.60;64.65
64388;BME280;50709;52.648;4.764;2023-02-20T07:59:47;102121.41;;;14.27;63.03
64388;BME280;50709;52.648;4.764;2023-02-20T08:02:13;102151.25;;;14.40;63.16
64388;BME280;50709;52.648;4.764;2023-02-20T08:04:38;102143.78;;;13.80;65.27
64388;BME280;50709;52.648;4.764;2023-02-20T08:07:03;102140.41;;;13.96;63.68
64388;BME280;50709;52.648;4.764;2023-02-20T08:09:33;102124.81;;;14.18;64.06
64388;BME280;50709;52.648;4.764;2023-02-20T08:11:59;102124.72;;;14.01;63.84
64388;BME280;50709;52.648;4.764;2023-02-20T08:14:24;102106.09;;;13.75;63.92
64388;BME280;50709;52.648;4.764;2023-02-20T08:16:50;102086.38;;;14.28;64.47
64388;BME280;50709;52.648;4.764;2023-02-20T08:19:15;102103.78;;;14.13;61.29
64388;BME280;50709;52.648;4.764;2023-02-20T08:21:40;102101.38;;;14.51;64.61
64388;BME280;50709;52.648;4.764;2023-02-20T08:24:06;102106.28;;;13.98;63.48
64388;BME280;50709;52.648;4.764;2023-02-20T08:26:31;102106.97;;;13.75;65.58
64388;BME280;50709;52.648;4.764;2023-02-20T08:28:59;102103.72;;;14.09;65.39
64388;BME280;50709;52.648;4.764;2023-02-20T08:31:24;102091.28;;;13.85;64.51
64388;BME280;50709;52.648;4.764;2023-02-20T08:33:51;102105.97;;;13.62;63.74
64388;BME280;50709;52.648;4.764;2023-02-20T08:36:16;102086.38;;;14.28;64.51
64388;BME280;50709;52.648;4.764;2023-02-20T08:38:43;102094.31;;;13.36;63.47
64388;BME280;50709;52.648;4.764;2023-02-20T08:41:10;102104.09;;;13.49;65.51
64388;BME280;50709;52.648;4.764;2023-02-20T08:43:37;102081.59;;;12.94;64.58
64388;BME280;50709;52.648;4.764;2023-02-20T08:46:04;102110.31;;;12.84;65.84
64388;BME280;50709;52.648;4.764;2023-02-20T08:48:29;102117.56;;;13.06;67.98
64388;BME280;50709;52.648;4.764;2023-02-20T08:50:54;102122.06;;;12.51;68.66
64388;BME280;50709;52.648;4.764;2023-02-20T08:53:20;102133.69;;;13.37;66.19
64388;BME280;50709;52.648;4.764;2023-02-20T08:55:46;102102.59;;;13.77;66.92
64388;BME280;50709;52.648;4.764;2023-02-20T08:58:11;102112.53;;;14.14;63.91
64388;BME280;50709;52.648;4.764;2023-02-20T09:00:37;102100.94;;;13.87;65.53
64388;BME280;50709;52.648;4.764;2023-02-20T09:03:02;102112.53;;;13.25;66.71
64388;BME280;50709;52.648;4.764;2023-02-20T09:05:32;102100.97;;;13.09;65.03
64388;BME280;50709;52.648;4.764;2023-02-20T09:07:58;102103.72;;;14.07;63.95
64388;BME280;50709;52.648;4.764;2023-02-20T09:10:24;102112.59;;;14.19;63.59
64388;BME280;50709;52.648;4.764;2023-02-20T09:12:49;102119.28;;;13.81;63.88
64388;BME280;50709;52.648;4.764;2023-02-20T09:15:15;102112.91;;;13.56;66.06
64388;BME280;50709;52.648;4.764;2023-02-20T09:17:52;102116.03;;;14.13;65.95
64388;BME280;50709;52.648;4.764;2023-02-20T09:20:19;102116.28;;;14.50;64.95
64388;BME280;50709;52.648;4.764;2023-02-20T09:22:48;102112.19;;;13.72;63.49
64388;BME280;50709;52.648;4.764;2023-02-20T09:25:15;102104.63;;;14.09;64.48
64388;BME280;50709;52.648;4.764;2023-02-20T09:27:41;102107.28;;;14.12;63.52
64388;BME280;50709;52.648;4.764;2023-02-20T09:30:07;102101.16;;;14.10;64.08
64388;BME280;50709;52.648;4.764;2023-02-20T09:32:32;102101.69;;;13.72;63.23
64388;BME280;50709;52.648;4.764;2023-02-20T09:34:58;102101.09;;;14.09;65.24
64388;BME280;50709;52.648;4.764;2023-02-20T09:37:24;102068.53;;;13.82;66.09
64388;BME280;50709;52.648;4.764;2023-02-20T09:39:49;102065.47;;;13.36;67.84
64388;BME280;50709;52.648;4.764;2023-02-20T09:42:26;102087.56;;;13.58;68.33
64388;BME280;50709;52.648;4.764;2023-02-20T09:45:13;102086.91;;;13.84;67.95
64388;BME280;50709;52.648;4.764;2023-02-20T09:50:50;102090.66;;;14.18;66.88
64388;BME280;50709;52.648;4.764;2023-02-20T09:55:53;102090.31;;;13.73;66.97
64388;BME280;50709;52.648;4.764;2023-02-20T09:58:25;102091.97;;;13.62;66.82
64388;BME280;50709;52.648;4.764;2023-02-20T10:00:52;102086.53;;;13.40;66.88
64388;BME280;50709;52.648;4.764;2023-02-20T10:03:38;102077.81;;;13.44;68.63
64388;BME280;50709;52.648;4.764;2023-02-20T10:06:15;102055.03;;;13.39;68.26
64388;BME280;50709;52.648;4.764;2023-02-20T10:08:41;102066.22;;;13.27;66.87
64388;BME280;50709;52.648;4.764;2023-02-20T10:11:10;102088.47;;;13.61;68.21
64388;BME280;50709;52.648;4.764;2023-02-20T10:13:51;102100.78;;;13.67;67.09
64388;BME280;50709;52.648;4.764;2023-02-20T10:16:49;102094.16;;;14.16;65.77
64388;BME280;50709;52.648;4.764;2023-02-20T10:22:03;102089.47;;;13.77;66.91
64388;BME280;50709;52.648;4.764;2023-02-20T10:24:43;102082.97;;;13.38;67.95
64388;BME280;50709;52.648;4.764;2023-02-20T10:30:02;102128.44;;;14.28;66.39
64388;BME280;50709;52.648;4.764;2023-02-20T10:32:52;102134.44;;;14.15;67.02
64388;BME280;50709;52.648;4.764;2023-02-20T10:35:24;102133.47;;;14.05;66.58
64388;BME280;50709;52.648;4.764;2023-02-20T10:37:54;102108.66;;;13.67;65.22
64388;BME280;50709;52.648;4.764;2023-02-20T10:42:52;102117.66;;;13.95;65.72
64388;BME280;50709;52.648;4.764;2023-02-20T10:45:25;102121.81;;;13.73;66.94
64388;BME280;50709;52.648;4.764;2023-02-20T10:48:06;102120.56;;;14.31;66.65
64388;BME280;50709;52.648;4.764;2023-02-20T10:55:44;102086.25;;;14.09;65.67
64388;BME280;50709;52.648;4.764;2023-02-20T10:58:27;102114.03;;;13.81;66.49
64388;BME280;50709;52.648;4.764;2023-02-20T11:01:01;102094.28;;;14.33;64.77
64388;BME280;50709;52.648;4.764;2023-02-20T11:06:02;102121.28;;;14.11;65.72
64388;BME280;50709;52.648;4.764;2023-02-20T11:08:28;102132.63;;;14.09;65.49
64388;BME280;50709;52.648;4.764;2023-02-20T11:11:00;102118.75;;;14.24;65.75
64388;BME280;50709;52.648;4.764;2023-02-20T11:13:30;102097.25;;;13.67;64.53
64388;BME280;50709;52.648;4.764;2023-02-20T11:15:56;102136.16;;;14.09;66.72
64388;BME280;50709;52.648;4.764;2023-02-20T11:18:25;102118.38;;;13.80;65.92
64388;BME280;50709;52.648;4.764;2023-02-20T11:20:53;102078.03;;;13.69;66.86
64388;BME280;50709;52.648;4.764;2023-02-20T11:23:43;102094.25;;;14.28;65.71
64388;BME280;50709;52.648;4.764;2023-02-20T11:26:25;102105.72;;;14.38;65.54
64388;BME280;50709;52.648;4.764;2023-02-20T11:29:02;102114.31;;;14.17;65.19
64388;BME280;50709;52.648;4.764;2023-02-20T11:31:30;102106.56;;;14.38;64.65
64388;BME280;50709;52.648;4.764;2023-02-20T11:33:56;102112.91;;;13.54;67.62
64388;BME280;50709;52.648;4.764;2023-02-20T11:36:24;102052.50;;;13.50;66.76
64388;BME280;50709;52.648;4.764;2023-02-20T11:39:01;102095.63;;;13.79;67.79
64388;BME280;50709;52.648;4.764;2023-02-20T11:41:34;102121.78;;;13.67;67.43
64388;BME280;50709;52.648;4.764;2023-02-20T11:44:15;102121.25;;;14.08;67.38
64388;BME280;50709;52.648;4.764;2023-02-20T11:46:41;102100.16;;;13.98;67.62
64388;BME280;50709;52.648;4.764;2023-02-20T11:49:10;102109.13;;;14.24;65.65
64388;BME280;50709;52.648;4.764;2023-02-20T11:51:44;102095.84;;;14.06;65.78
64388;BME280;50709;52.648;4.764;2023-02-20T11:54:15;102090.78;;;14.35;65.15
64388;BME280;50709;52.648;4.764;2023-02-20T11:59:30;102106.25;;;13.92;66.56
64388;BME280;50709;52.648;4.764;2023-02-20T12:04:36;102061.25;;;13.53;66.09
64388;BME280;50709;52.648;4.764;2023-02-20T12:07:16;102072.88;;;13.82;66.72
64388;BME280;50709;52.648;4.764;2023-02-20T12:09:45;102061.50;;;13.79;67.17
64388;BME280;50709;52.648;4.764;2023-02-20T12:12:13;102061.81;;;14.21;66.93
64388;BME280;50709;52.648;4.764;2023-02-20T12:14:39;102072.25;;;14.10;69.05
64388;BME280;50709;52.648;4.764;2023-02-20T12:17:20;102074.06;;;14.21;67.14
64388;BME280;50709;52.648;4.764;2023-02-20T12:22:35;102082.53;;;13.86;68.96
64388;BME280;50709;52.648;4.764;2023-02-20T12:25:05;102091.78;;;13.40;68.85
64388;BME280;50709;52.648;4.764;2023-02-20T12:30:43;102121.34;;;14.21;66.44
64388;BME280;50709;52.648;4.764;2023-02-20T12:36:40;102116.06;;;14.15;67.91
64388;BME280;50709;52.648;4.764;2023-02-20T12:39:21;102080.22;;;14.26;66.80
64388;BME280;50709;52.648;4.764;2023-02-20T12:44:38;102068.25;;;14.74;65.18
64388;BME280;50709;52.648;4.764;2023-02-20T12:47:25;102067.34;;;14.63;64.96
64388;BME280;50709;52.648;4.764;2023-02-20T12:53:52;102063.31;;;13.87;65.53
64388;BME280;50709;52.648;4.764;2023-02-20T12:58:47;102026.75;;;14.21;66.56
64388;BME280;50709;52.648;4.764;2023-02-20T13:01:18;102046.19;;;14.44;65.28
64388;BME280;50709;52.648;4.764;2023-02-20T13:06:34;102039.38;;;14.87;64.36
64388;BME280;50709;52.648;4.764;2023-02-20T13:09:08;102026.00;;;14.45;65.41
64388;BME280;50709;52.648;4.764;2023-02-20T13:11:42;102021.44;;;14.07;66.04
64388;BME280;50709;52.648;4.764;2023-02-20T13:16:44;102062.84;;;14.50;64.90
64388;BME280;50709;52.648;4.764;2023-02-20T13:19:24;102053.16;;;14.41;65.35
64388;BME280;50709;52.648;4.764;2023-02-20T13:21:54;102075.81;;;14.23;65.32
64388;BME280;50709;52.648;4.764;2023-02-20T13:26:46;102069.88;;;14.54;66.06
64388;BME280;50709;52.648;4.764;2023-02-20T13:29:17;102050.47;;;14.30;65.13
64388;BME280;50709;52.648;4.764;2023-02-20T13:31:47;102075.22;;;14.66;65.36
64388;BME280;50709;52.648;4.764;2023-02-20T13:36:45;102055.84;;;14.55;65.73
64388;BME280;50709;52.648;4.764;2023-02-20T13:55:02;102057.56;;;14.43;64.61
64388;BME280;50709;52.648;4.764;2023-02-20T13:57:32;102059.34;;;14.51;64.98
64388;BME280;50709;52.648;4.764;2023-02-20T13:59:59;102069.03;;;14.59;64.62
64388;BME280;50709;52.648;4.764;2023-02-20T14:02:25;102056.00;;;14.79;65.16
64388;BME280;50709;52.648;4.764;2023-02-20T14:07:33;102052.28;;;14.45;64.83
64388;BME280;50709;52.648;4.764;2023-02-20T14:10:29;102062.09;;;14.63;64.43
64388;BME280;50709;52.648;4.764;2023-02-20T14:13:02;102067.34;;;14.66;65.00
64388;BME280;50709;52.648;4.764;2023-02-20T14:15:32;102062.69;;;14.20;64.59
64388;BME280;50709;52.648;4.764;2023-02-20T14:17:58;102044.41;;;14.45;64.67
64388;BME280;50709;52.648;4.764;2023-02-20T14:20:31;102043.34;;;14.10;64.28
64388;BME280;50709;52.648;4.764;2023-02-20T14:25:37;102047.63;;;14.01;65.03
64388;BME280;50709;52.648;4.764;2023-02-20T14:28:11;102051.84;;;13.75;65.78
64388;BME280;50709;52.648;4.764;2023-02-20T14:30:37;102049.16;;;13.72;66.64
64388;BME280;50709;52.648;4.764;2023-02-20T14:33:09;102047.38;;;13.65;66.86
64388;BME280;50709;52.648;4.764;2023-02-20T14:35:53;102044.00;;;13.80;66.08
64388;BME280;50709;52.648;4.764;2023-02-20T14:38:35;102027.09;;;13.47;67.43
64388;BME280;50709;52.648;4.764;2023-02-20T14:41:20;102040.44;;;13.73;67.35
64388;BME280;50709;52.648;4.764;2023-02-20T14:44:00;102057.44;;;13.23;66.62
64388;BME280;50709;52.648;4.764;2023-02-20T14:46:31;102030.34;;;14.34;66.04